createdAt,value
2018-01-31T01:52:26.345Z,0
2018-01-31T01:52:35.949Z,0
2018-01-31T01:53:36.193Z,0
2018-01-31T01:54:36.199Z,0
2018-01-31T01:55:36.245Z,0
2018-01-31T01:56:36.260Z,0
2018-01-31T01:57:36.262Z,0
2018-01-31T01:58:50.691Z,0
2018-01-31T01:59:36.309Z,0
2018-01-31T02:00:36.293Z,0
2018-01-31T02:01:36.077Z,0
2018-01-31T02:02:36.332Z,0
2018-01-31T02:03:36.353Z,0
2018-01-31T02:04:50.875Z,0
2018-01-31T02:05:36.113Z,0
2018-01-31T02:06:36.393Z,0
2018-01-31T02:07:36.414Z,0
2018-01-31T02:08:36.427Z,0
2018-01-31T02:09:36.432Z,0
2018-01-31T02:10:36.470Z,0
2018-01-31T02:11:36.208Z,0
2018-01-31T02:13:51.148Z,0
2018-01-31T02:14:36.509Z,0
2018-01-31T02:15:36.539Z,0
2018-01-31T02:16:36.288Z,0
2018-01-31T02:18:36.587Z,0
2018-01-31T02:19:36.327Z,0
2018-01-31T02:20:36.581Z,0
2018-01-31T02:21:36.106Z,0
2018-01-31T02:23:36.657Z,0
2018-01-31T02:24:36.387Z,0
2018-01-31T02:25:36.422Z,0
2018-01-31T02:26:36.686Z,0
2018-01-31T02:27:36.697Z,0
2018-01-31T02:28:36.709Z,0
2018-01-31T02:29:51.399Z,0
2018-01-31T02:30:36.749Z,0
2018-01-31T02:31:36.763Z,0
2018-01-31T02:32:36.794Z,0
2018-01-31T02:33:36.797Z,0
2018-01-31T02:34:36.551Z,0
2018-01-31T02:35:36.826Z,0
2018-01-31T02:36:36.834Z,0
2018-01-31T02:37:36.845Z,0
2018-01-31T02:38:51.283Z,0
2018-01-31T02:39:51.283Z,0
2018-01-31T02:41:36.889Z,0
2018-01-31T02:42:36.918Z,0
2018-01-31T02:43:36.688Z,0
2018-01-31T02:44:36.967Z,0
2018-01-31T02:45:51.627Z,0
2018-01-31T02:46:36.983Z,0
2018-01-31T02:47:37.050Z,0
2018-01-31T02:48:36.747Z,0
2018-01-31T02:49:51.691Z,0
2018-01-31T02:50:37.020Z,0
2018-01-31T02:51:37.051Z,0
2018-01-31T02:52:51.490Z,0
2018-01-31T02:53:36.829Z,0
2018-01-31T02:54:37.073Z,0
2018-01-31T02:55:37.109Z,0
2018-01-31T02:56:37.105Z,0
2018-01-31T02:57:51.805Z,0
2018-01-31T02:58:51.808Z,0
2018-01-31T02:59:37.151Z,0
2018-01-31T03:00:37.186Z,0
2018-01-31T03:02:36.958Z,0
2018-01-31T03:03:37.220Z,0
2018-01-31T03:05:37.000Z,0
2018-01-31T03:06:37.012Z,0
2018-01-31T03:07:37.281Z,0
2018-01-31T03:08:37.288Z,0
2018-01-31T03:09:51.954Z,0
2018-01-31T03:10:37.310Z,0
2018-01-31T03:11:36.579Z,0
2018-01-31T03:12:37.095Z,0
2018-01-31T03:13:37.364Z,0
2018-01-31T03:14:37.116Z,0
2018-01-31T03:15:37.146Z,0
2018-01-31T03:16:51.838Z,0
2018-01-31T03:17:37.428Z,0
2018-01-31T03:18:37.205Z,0
2018-01-31T03:19:37.187Z,0
2018-01-31T03:20:37.227Z,0
2018-01-31T03:21:37.225Z,0
2018-01-31T03:22:37.482Z,0
2018-01-31T03:23:37.522Z,0
2018-01-31T03:24:37.575Z,0
2018-01-31T03:25:37.521Z,0
2018-01-31T03:26:37.292Z,0
2018-01-31T03:27:37.294Z,0
2018-01-31T03:28:37.567Z,0
2018-01-31T03:29:37.582Z,0
2018-01-31T03:30:37.332Z,0
2018-01-31T03:31:37.625Z,0
2018-01-31T03:32:37.361Z,0
2018-01-31T03:33:37.639Z,0
2018-01-31T03:34:37.662Z,0
2018-01-31T03:35:37.158Z,0
2018-01-31T03:36:37.434Z,0
2018-01-31T03:37:37.456Z,0
2018-01-31T03:38:37.691Z,0
2018-01-31T03:39:37.463Z,0
2018-01-31T03:40:37.749Z,0
2018-01-31T03:41:37.574Z,0
2018-01-31T03:42:37.519Z,0
2018-01-31T03:43:37.522Z,0
2018-01-31T03:44:37.545Z,0
2018-01-31T03:45:37.559Z,0
2018-01-31T03:46:37.817Z,0
2018-01-31T03:47:37.844Z,0
2018-01-31T03:48:52.512Z,0
2018-01-31T03:49:37.630Z,0
2018-01-31T03:50:37.895Z,0
2018-01-31T03:51:37.630Z,0
2018-01-31T03:52:37.648Z,0
2018-01-31T03:53:37.913Z,0
2018-01-31T03:54:37.678Z,0
2018-01-31T03:55:37.947Z,0
2018-01-31T03:56:37.948Z,0
2018-01-31T03:57:37.717Z,0
2018-01-31T03:58:37.732Z,0
2018-01-31T03:59:38.012Z,0
2018-01-31T04:00:38.026Z,0
2018-01-31T04:01:52.697Z,0
2018-01-31T04:03:38.101Z,0
2018-01-31T04:04:52.733Z,0
2018-01-31T04:05:38.100Z,0
2018-01-31T04:06:37.595Z,0
2018-01-31T04:07:38.125Z,0
2018-01-31T04:08:52.546Z,0
2018-01-31T04:09:52.812Z,0
2018-01-31T04:11:38.164Z,0
2018-01-31T04:12:37.923Z,0
2018-01-31T04:13:38.173Z,0
2018-01-31T04:15:38.237Z,0
2018-01-31T04:16:37.978Z,0
2018-01-31T04:17:38.240Z,0
2018-01-31T04:18:38.012Z,0
2018-01-31T04:19:38.029Z,0
2018-01-31T04:20:52.958Z,0
2018-01-31T04:21:38.057Z,0
2018-01-31T04:22:38.069Z,0
2018-01-31T04:23:38.090Z,0
2018-01-31T04:24:38.077Z,0
2018-01-31T04:25:38.384Z,0
2018-01-31T04:27:38.110Z,0
2018-01-31T04:28:38.176Z,0
2018-01-31T04:30:38.436Z,0
2018-01-31T04:31:38.432Z,0
2018-01-31T04:32:38.462Z,0
2018-01-31T04:33:38.465Z,0
2018-01-31T04:34:38.226Z,0
2018-01-31T04:35:38.493Z,0
2018-01-31T04:36:53.192Z,0
2018-01-31T04:37:38.013Z,0
2018-01-31T04:38:38.294Z,0
2018-01-31T04:39:38.564Z,0
2018-01-31T04:40:38.296Z,0
2018-01-31T04:41:38.572Z,0
2018-01-31T04:42:53.256Z,0
2018-01-31T04:44:38.363Z,0
2018-01-31T04:45:38.621Z,0
2018-01-31T04:46:38.649Z,0
2018-01-31T04:47:38.403Z,0
2018-01-31T04:48:38.675Z,0
2018-01-31T04:49:38.680Z,0
2018-01-31T04:50:38.670Z,0
2018-01-31T04:51:53.388Z,0
2018-01-31T04:52:38.729Z,0
2018-01-31T04:53:38.732Z,0
2018-01-31T04:54:38.518Z,0
2018-01-31T04:55:38.271Z,0
2018-01-31T04:56:38.522Z,0
2018-01-31T04:57:38.862Z,0
2018-01-31T04:58:38.793Z,0
2018-01-31T04:59:38.837Z,0
2018-01-31T05:00:38.603Z,0
2018-01-31T05:01:38.911Z,0
2018-01-31T05:02:38.598Z,0
2018-01-31T05:03:53.568Z,0
2018-01-31T05:04:53.579Z,0
2018-01-31T05:05:38.926Z,0
2018-01-31T05:06:38.905Z,0
2018-01-31T05:07:53.616Z,0
2018-01-31T05:09:38.967Z,0
2018-01-31T05:10:38.750Z,0
2018-01-31T05:11:53.685Z,0
2018-01-31T05:12:38.787Z,0
2018-01-31T05:13:53.709Z,0
2018-01-31T05:24:53.535Z,0
2018-01-31T05:25:38.572Z,0
2018-01-31T05:26:38.589Z,0
2018-01-31T05:27:38.915Z,0
2018-01-31T05:28:38.927Z,0
2018-01-31T05:29:38.942Z,0
2018-01-31T05:30:38.958Z,0
2018-01-31T05:31:39.027Z,0
2018-01-31T05:32:53.404Z,0
2018-01-31T05:33:38.471Z,0
2018-01-31T05:34:38.748Z,0
2018-01-31T05:35:38.762Z,0
2018-01-31T05:36:39.048Z,0
2018-01-31T05:37:39.051Z,0
2018-01-31T05:38:39.071Z,0
2018-01-31T05:39:53.740Z,0
2018-01-31T05:40:39.095Z,0
2018-01-31T05:41:38.843Z,0
2018-01-31T05:42:38.861Z,0
2018-01-31T05:43:39.134Z,0
2018-01-31T05:44:38.883Z,0
2018-01-31T05:45:39.158Z,0
2018-01-31T05:47:38.667Z,0
2018-01-31T05:48:39.202Z,0
2018-01-31T05:49:53.602Z,0
2018-01-31T05:50:38.963Z,0
2018-01-31T05:51:53.628Z,0
2018-01-31T05:52:38.993Z,0
2018-01-31T05:53:39.270Z,0
2018-01-31T05:54:39.023Z,0
2018-01-31T05:55:53.946Z,0
2018-01-31T05:56:39.315Z,0
2018-01-31T05:57:38.807Z,0
2018-01-31T05:58:39.341Z,0
2018-01-31T06:00:39.107Z,0
2018-01-31T06:01:54.028Z,0
2018-01-31T06:02:54.086Z,0
2018-01-31T06:03:39.146Z,0
2018-01-31T06:05:39.170Z,0
2018-01-31T06:06:39.453Z,0
2018-01-31T06:07:39.462Z,0
2018-01-31T06:08:39.474Z,0
2018-01-31T06:09:39.519Z,0
2018-01-31T06:11:53.900Z,0
2018-01-31T06:12:39.270Z,0
2018-01-31T06:13:39.287Z,0
2018-01-31T06:14:39.566Z,0
2018-01-31T06:15:39.580Z,0
2018-01-31T06:16:39.591Z,0
2018-01-31T06:17:54.249Z,4
2018-01-31T06:18:54.261Z,4
2018-01-31T06:19:39.366Z,4
2018-01-31T06:21:54.299Z,0
2018-01-31T06:22:39.670Z,0
2018-01-31T06:23:39.691Z,4
2018-01-31T06:24:54.342Z,4
2018-01-31T06:25:39.192Z,4
2018-01-31T06:26:54.373Z,4
2018-01-31T06:27:39.743Z,8
2018-01-31T06:28:39.237Z,8
2018-01-31T06:29:39.773Z,8
2018-01-31T06:30:39.790Z,12
2018-01-31T06:31:39.849Z,12
2018-01-31T06:32:39.571Z,12
2018-01-31T06:33:39.829Z,12
2018-01-31T06:34:39.839Z,16
2018-01-31T06:35:39.650Z,16
2018-01-31T06:36:39.868Z,20
2018-01-31T06:37:39.888Z,24
2018-01-31T06:38:39.997Z,24
2018-01-31T06:39:39.643Z,32
2018-01-31T06:40:39.660Z,32
2018-01-31T06:41:39.939Z,36
2018-01-31T06:42:39.691Z,44
2018-01-31T06:43:54.615Z,52
2018-01-31T06:44:39.720Z,56
2018-01-31T06:45:39.996Z,60
2018-01-31T06:46:54.655Z,68
2018-01-31T06:47:39.760Z,76
2018-01-31T06:48:39.774Z,80
2018-01-31T06:49:39.787Z,88
2018-01-31T06:50:40.080Z,96
2018-01-31T06:51:40.086Z,104
2018-01-31T06:52:39.827Z,112
2018-01-31T06:53:40.104Z,124
2018-01-31T06:54:40.142Z,132
2018-01-31T06:55:40.139Z,144
2018-01-31T06:56:54.530Z,160
2018-01-31T06:57:39.904Z,168
2018-01-31T06:58:54.825Z,188
2018-01-31T06:59:40.188Z,192
2018-01-31T07:00:39.941Z,200
2018-01-31T07:01:39.963Z,212
2018-01-31T07:02:54.880Z,216
2018-01-31T07:03:54.894Z,224
2018-01-31T07:04:40.266Z,232
2018-01-31T07:05:54.920Z,220
2018-01-31T07:06:40.292Z,204
2018-01-31T07:07:40.301Z,184
2018-01-31T07:08:40.345Z,172
2018-01-31T07:09:40.334Z,180
2018-01-31T07:10:40.349Z,184
2018-01-31T07:11:39.837Z,196
2018-01-31T07:12:40.375Z,220
2018-01-31T07:13:40.074Z,260
2018-01-31T07:15:09.666Z,320
2018-01-31T07:15:40.095Z,336
2018-01-31T07:16:40.109Z,388
2018-01-31T07:17:40.117Z,444
2018-01-31T07:18:40.400Z,548
2018-01-31T07:19:40.138Z,688
2018-01-31T07:20:54.813Z,856
2018-01-31T07:22:39.944Z,904
2018-01-31T07:23:39.933Z,940
2018-01-31T07:24:39.950Z,1048
2018-01-31T07:25:40.216Z,1176
2018-01-31T07:26:40.608Z,1312
2018-01-31T07:27:40.578Z,1456
2018-01-31T07:28:40.026Z,1628
2018-01-31T07:29:40.533Z,1808
2018-01-31T07:30:55.209Z,2024
2018-01-31T07:31:40.544Z,2172
2018-01-31T07:32:40.326Z,2332
2018-01-31T07:33:40.495Z,2356
2018-01-31T07:34:40.345Z,2304
2018-01-31T07:35:40.412Z,2192
2018-01-31T07:36:40.674Z,2040
2018-01-31T07:37:40.644Z,1900
2018-01-31T07:38:40.641Z,1792
2018-01-31T07:39:55.334Z,1736
2018-01-31T07:40:54.865Z,1768
2018-01-31T07:41:55.377Z,1852
2018-01-31T07:42:40.752Z,1920
2018-01-31T07:43:39.983Z,2004
2018-01-31T07:44:40.490Z,2008
2018-01-31T07:46:55.195Z,1848
2018-01-31T07:47:40.780Z,1832
2018-01-31T07:48:40.789Z,1856
2018-01-31T07:49:40.571Z,1840
2018-01-31T07:50:40.326Z,1816
2018-01-31T07:51:40.864Z,1828
2018-01-31T07:52:40.610Z,1872
2018-01-31T07:53:40.885Z,1864
2018-01-31T07:54:40.647Z,1860
2018-01-31T07:55:40.910Z,1872
2018-01-31T07:56:40.708Z,1948
2018-01-31T07:57:40.936Z,2072
2018-01-31T07:59:40.450Z,2540
2018-01-31T08:00:40.981Z,2812
2018-01-31T08:01:55.829Z,3104
2018-01-31T08:02:55.411Z,3312
2018-01-31T08:03:55.754Z,3308
2018-01-31T08:05:40.561Z,3188
2018-01-31T08:06:41.133Z,3224
2018-01-31T08:07:40.316Z,3348
2018-01-31T08:08:41.113Z,3580
2018-01-31T08:09:55.542Z,3772
2018-01-31T08:10:41.141Z,3556
2018-01-31T08:11:40.880Z,3476
2018-01-31T08:12:41.159Z,3344
2018-01-31T08:14:40.687Z,3004
2018-01-31T08:15:40.960Z,3096
2018-01-31T08:17:55.659Z,2688
2018-01-31T08:18:41.015Z,2612
2018-01-31T08:19:40.502Z,2536
2018-01-31T08:20:40.791Z,2348
2018-01-31T08:21:41.299Z,2164
2018-01-31T08:22:41.323Z,2116
2018-01-31T08:23:41.347Z,2080
2018-01-31T08:24:41.095Z,2156
2018-01-31T08:25:40.858Z,2268
2018-01-31T08:26:56.055Z,2396
2018-01-31T08:27:41.501Z,2588
2018-01-31T08:28:41.241Z,2932
2018-01-31T08:29:41.159Z,3132
2018-01-31T08:30:41.418Z,3324
2018-01-31T08:31:41.455Z,3520
2018-01-31T08:32:41.216Z,3684
2018-01-31T08:33:56.157Z,3748
2018-01-31T08:35:41.259Z,3324
2018-01-31T08:36:41.564Z,3204
2018-01-31T08:38:41.319Z,3140
2018-01-31T08:40:40.846Z,3464
2018-01-31T08:41:41.368Z,3528
2018-01-31T08:43:41.123Z,3920
2018-01-31T08:44:41.647Z,3960
2018-01-31T08:45:56.344Z,3472
2018-01-31T08:46:41.700Z,3272
2018-01-31T08:47:41.443Z,3152
2018-01-31T08:48:41.450Z,3012
2018-01-31T08:49:56.405Z,2976
2018-01-31T08:50:41.494Z,3064
2018-01-31T08:51:41.246Z,3192
2018-01-31T08:52:41.571Z,3288
2018-01-31T08:53:41.809Z,3376
2018-01-31T08:54:41.806Z,3384
2018-01-31T08:55:41.571Z,3228
2018-01-31T08:56:41.842Z,2984
2018-01-31T08:57:41.590Z,2668
2018-01-31T08:58:41.870Z,2368
2018-01-31T08:59:41.637Z,2036
2018-01-31T09:00:41.886Z,1648
2018-01-31T09:01:41.651Z,1504
2018-01-31T09:02:41.413Z,1552
2018-01-31T09:03:41.701Z,1628
2018-01-31T09:04:41.723Z,1636
2018-01-31T09:05:56.675Z,1600
2018-01-31T09:06:41.760Z,1640
2018-01-31T09:07:41.870Z,1784
2018-01-31T09:08:56.431Z,1964
2018-01-31T09:09:41.780Z,1944
2018-01-31T09:10:41.562Z,1992
2018-01-31T09:11:42.081Z,2048
2018-01-31T09:12:41.877Z,2120
2018-01-31T09:13:42.090Z,2012
2018-01-31T09:14:41.866Z,1876
2018-01-31T09:15:42.168Z,1704
2018-01-31T09:16:56.568Z,1544
2018-01-31T09:18:41.942Z,1448
2018-01-31T09:19:41.931Z,1500
2018-01-31T09:20:41.959Z,1468
2018-01-31T09:21:56.908Z,1500
2018-01-31T09:22:42.356Z,1508
2018-01-31T09:23:41.764Z,1492
2018-01-31T09:24:42.010Z,1496
2018-01-31T09:25:42.062Z,1456
2018-01-31T09:26:42.332Z,1552
2018-01-31T09:27:41.924Z,1596
2018-01-31T09:28:41.870Z,1676
2018-01-31T09:29:42.371Z,1848
2018-01-31T09:30:42.404Z,1944
2018-01-31T09:31:41.629Z,1732
2018-01-31T09:32:42.135Z,1472
2018-01-31T09:33:57.084Z,1508
2018-01-31T09:34:41.948Z,1764
2018-01-31T09:35:41.964Z,2228
2018-01-31T09:36:57.144Z,2168
2018-01-31T09:37:42.231Z,1808
2018-01-31T09:38:42.515Z,1708
2018-01-31T09:39:42.110Z,1660
2018-01-31T09:40:42.018Z,1232
2018-01-31T09:41:42.274Z,1020
2018-01-31T09:43:42.088Z,1148
2018-01-31T09:44:42.341Z,1184
2018-01-31T09:45:42.348Z,1308
2018-01-31T09:46:42.650Z,1460
2018-01-31T09:47:57.318Z,1576
2018-01-31T09:48:42.684Z,1572
2018-01-31T09:49:42.163Z,1724
2018-01-31T09:50:42.695Z,2260
2018-01-31T09:51:57.117Z,1744
2018-01-31T09:53:42.500Z,1500
2018-01-31T09:54:42.731Z,1756
2018-01-31T09:55:42.770Z,1656
2018-01-31T09:56:42.532Z,1184
2018-01-31T09:57:57.221Z,1580
2018-01-31T09:58:42.840Z,1804
2018-01-31T09:59:42.838Z,1680
2018-01-31T10:00:42.868Z,1448
2018-01-31T10:01:42.374Z,1268
2018-01-31T10:02:42.880Z,1024
2018-01-31T10:03:42.408Z,1008
2018-01-31T10:04:42.915Z,1324
2018-01-31T10:05:42.690Z,1052
2018-01-31T10:06:42.701Z,1148
2018-01-31T10:07:42.973Z,956
2018-01-31T10:09:12.319Z,956
2018-01-31T10:09:42.744Z,944
2018-01-31T10:10:43.019Z,968
2018-01-31T10:11:42.631Z,1324
2018-01-31T10:12:42.523Z,1764
2018-01-31T10:13:42.805Z,1656
2018-01-31T10:14:42.813Z,1440
2018-01-31T10:15:42.851Z,1320
2018-01-31T10:16:42.876Z,1468
2018-01-31T10:17:42.863Z,1708
2018-01-31T10:18:42.873Z,1824
2018-01-31T10:19:42.655Z,1876
2018-01-31T10:20:57.861Z,1744
2018-01-31T10:21:42.946Z,1504
2018-01-31T10:22:43.202Z,1072
2018-01-31T10:23:43.221Z,932
2018-01-31T10:24:57.910Z,932
2018-01-31T10:25:42.737Z,1176
2018-01-31T10:26:43.027Z,1412
2018-01-31T10:27:43.035Z,1716
2018-01-31T10:28:57.975Z,1464
2018-01-31T10:29:43.311Z,1068
2018-01-31T10:31:43.092Z,1088
2018-01-31T10:32:43.372Z,1284
2018-01-31T10:33:57.809Z,1096
2018-01-31T10:34:58.062Z,1220
2018-01-31T10:36:42.935Z,1304
2018-01-31T10:37:42.931Z,1216
2018-01-31T10:38:43.210Z,1196
2018-01-31T10:39:42.974Z,1296
2018-01-31T10:40:57.911Z,1172
2018-01-31T10:41:43.556Z,1144
2018-01-31T10:42:43.020Z,1268
2018-01-31T10:43:43.543Z,1308
2018-01-31T10:44:43.289Z,1552
2018-01-31T10:45:43.327Z,1760
2018-01-31T10:46:58.258Z,1920
2018-01-31T10:47:43.356Z,2024
2018-01-31T10:48:43.612Z,2296
2018-01-31T10:49:43.667Z,2212
2018-01-31T10:51:43.410Z,2104
2018-01-31T10:52:43.531Z,2136
2018-01-31T10:57:34.644Z,1628
2018-01-31T10:57:44.258Z,1628
2018-01-31T10:58:44.523Z,1712
2018-01-31T10:59:44.527Z,2156
2018-01-31T11:01:44.576Z,1744
2018-01-31T11:02:44.570Z,1892
2018-01-31T11:03:44.591Z,1736
2018-01-31T11:05:44.631Z,1628
2018-01-31T11:06:58.813Z,2164
2018-01-31T11:07:59.078Z,1900
2018-01-31T11:08:44.445Z,1932
2018-01-31T11:09:44.704Z,2068
2018-01-31T11:10:44.439Z,1972
2018-01-31T11:11:44.718Z,2092
2018-01-31T11:12:59.142Z,2204
2018-01-31T11:13:44.763Z,1860
2018-01-31T11:14:59.230Z,1808
2018-01-31T11:15:44.524Z,1720
2018-01-31T11:16:59.454Z,2056
2018-01-31T11:17:44.572Z,1788
2018-01-31T11:18:44.837Z,1600
2018-01-31T11:19:44.859Z,1708
2018-01-31T11:20:44.618Z,1504
2018-01-31T11:21:44.887Z,1808
2018-01-31T11:22:59.589Z,1796
2018-01-31T11:24:44.701Z,1624
2018-01-31T11:25:44.451Z,1852
2018-01-31T11:26:45.043Z,2312
2018-01-31T11:27:44.989Z,2604
2018-01-31T11:28:45.001Z,2656
2018-01-31T11:29:44.517Z,2336
2018-01-31T11:30:45.033Z,2576
2018-01-31T11:31:45.061Z,2808
2018-01-31T11:32:45.062Z,2652
2018-01-31T11:33:45.094Z,2708
2018-01-31T11:34:45.111Z,2796
2018-01-31T11:35:44.878Z,2648
2018-01-31T11:36:45.133Z,2308
2018-01-31T11:37:45.162Z,2196
2018-01-31T11:38:44.672Z,2512
2018-01-31T11:39:59.617Z,2616
2018-01-31T11:41:45.216Z,2952
2018-01-31T11:42:44.978Z,2908
2018-01-31T11:43:45.281Z,3012
2018-01-31T11:44:45.275Z,2712
2018-01-31T11:45:44.899Z,2672
2018-01-31T11:46:45.056Z,2492
2018-01-31T11:47:45.332Z,2536
2018-01-31T11:48:44.610Z,2372
2018-01-31T11:49:45.369Z,2472
2018-01-31T11:50:45.121Z,2484
2018-01-31T11:51:45.125Z,2804
2018-01-31T11:52:44.891Z,2856
2018-01-31T11:53:44.935Z,3476
2018-01-31T11:55:00.109Z,3976
2018-01-31T11:55:45.207Z,4044
2018-01-31T11:56:45.485Z,3956
2018-01-31T11:57:45.227Z,3672
2018-01-31T11:58:45.341Z,4208
2018-01-31T11:59:59.689Z,3932
2018-01-31T12:00:45.290Z,3072
2018-01-31T12:02:45.084Z,2616
2018-01-31T12:03:44.877Z,2768
2018-01-31T12:04:45.635Z,2972
2018-01-31T12:05:45.128Z,3048
2018-01-31T12:06:45.386Z,3200
2018-01-31T12:07:45.414Z,2688
2018-01-31T12:08:45.785Z,2884
2018-01-31T12:09:45.199Z,2536
2018-01-31T12:11:00.119Z,2716
2018-01-31T12:11:45.734Z,3388
2018-01-31T12:12:45.483Z,3396
2018-01-31T12:13:45.790Z,3028
2018-01-31T12:14:45.774Z,2724
2018-01-31T12:15:45.801Z,2668
2018-01-31T12:16:45.799Z,3280
2018-01-31T12:17:45.858Z,3868
2018-01-31T12:18:45.877Z,4004
2018-01-31T12:20:00.549Z,4480
2018-01-31T12:20:45.645Z,4188
2018-01-31T12:21:45.410Z,3824
2018-01-31T12:22:45.928Z,3492
2018-01-31T12:23:45.696Z,3516
2018-01-31T12:25:45.736Z,3476
2018-01-31T12:27:15.334Z,4100
2018-01-31T12:27:46.015Z,4088
2018-01-31T12:28:46.040Z,4100
2018-01-31T12:29:45.809Z,4264
2018-01-31T12:30:45.823Z,3512
2018-01-31T12:31:46.180Z,3520
2018-01-31T12:33:00.780Z,4312
2018-01-31T12:33:45.867Z,4264
2018-01-31T12:35:00.832Z,3704
2018-01-31T12:35:45.893Z,3624
2018-01-31T12:37:00.606Z,3812
2018-01-31T12:37:45.931Z,4020
2018-01-31T12:38:45.958Z,3964
2018-01-31T12:40:00.957Z,4360
2018-01-31T12:40:45.998Z,4488
2018-01-31T12:41:46.023Z,4464
2018-01-31T12:43:00.964Z,4264
2018-01-31T12:43:46.313Z,4288
2018-01-31T12:44:46.296Z,4136
2018-01-31T12:45:46.200Z,3580
2018-01-31T12:46:46.117Z,3204
2018-01-31T12:47:46.118Z,3172
2018-01-31T12:49:01.078Z,3880
2018-01-31T12:49:46.399Z,3868
2018-01-31T12:51:00.843Z,3700
2018-01-31T12:51:45.943Z,3800
2018-01-31T12:52:46.196Z,3864
2018-01-31T12:53:46.240Z,3864
2018-01-31T12:54:46.244Z,3704
2018-01-31T12:55:46.289Z,3752
2018-01-31T12:56:46.320Z,3712
2018-01-31T12:58:01.235Z,3640
2018-01-31T12:58:46.319Z,3520
2018-01-31T12:59:46.603Z,3340
2018-01-31T13:00:46.624Z,3304
2018-01-31T13:02:46.408Z,3068
2018-01-31T13:03:46.412Z,3128
2018-01-31T13:05:01.103Z,3144
2018-01-31T13:05:46.688Z,3108
2018-01-31T13:06:46.218Z,3000
2018-01-31T13:08:01.464Z,2880
2018-01-31T13:09:01.187Z,3068
2018-01-31T13:10:01.213Z,3152
2018-01-31T13:10:46.773Z,3060
2018-01-31T13:11:46.829Z,2876
2018-01-31T13:12:46.321Z,2660
2018-01-31T13:13:46.863Z,2500
2018-01-31T13:14:46.872Z,2364
2018-01-31T13:15:46.901Z,2320
2018-01-31T13:16:46.921Z,2396
2018-01-31T13:17:46.683Z,2500
2018-01-31T13:18:46.707Z,2568
2018-01-31T13:19:46.719Z,2604
2018-01-31T13:20:46.727Z,2620
2018-01-31T13:21:46.746Z,2592
2018-01-31T13:22:46.756Z,2564
2018-01-31T13:23:47.031Z,2500
2018-01-31T13:24:47.056Z,2452
2018-01-31T13:25:46.808Z,2428
2018-01-31T13:26:46.834Z,2272
2018-01-31T13:27:46.848Z,1952
2018-01-31T13:28:47.127Z,1768
2018-01-31T13:30:46.654Z,1720
2018-01-31T13:31:47.172Z,1620
2018-01-31T13:32:46.961Z,1512
2018-01-31T13:34:01.902Z,1464
2018-01-31T13:34:47.267Z,1480
2018-01-31T13:35:46.772Z,1484
2018-01-31T13:37:47.043Z,1172
2018-01-31T13:38:47.296Z,1052
2018-01-31T13:39:47.081Z,1028
2018-01-31T13:40:47.096Z,1096
2018-01-31T13:41:47.104Z,1212
2018-01-31T13:42:47.137Z,1228
2018-01-31T13:43:47.162Z,1240
2018-01-31T13:44:47.434Z,1292
2018-01-31T13:46:02.109Z,1292
2018-01-31T13:46:47.458Z,1256
2018-01-31T13:47:47.197Z,1216
2018-01-31T13:48:47.481Z,1264
2018-01-31T13:49:47.253Z,1260
2018-01-31T13:51:01.948Z,1020
2018-01-31T13:51:47.539Z,912
2018-01-31T13:52:47.070Z,848
2018-01-31T13:53:47.574Z,880
2018-01-31T13:54:47.357Z,876
2018-01-31T13:55:47.615Z,900
2018-01-31T13:56:47.634Z,984
2018-01-31T13:57:47.715Z,1084
2018-01-31T13:58:47.691Z,1116
2018-01-31T13:59:47.705Z,1208
2018-01-31T14:00:47.774Z,1336
2018-01-31T14:02:02.396Z,1376
2018-01-31T14:02:47.749Z,1400
2018-01-31T14:03:47.760Z,1288
2018-01-31T14:04:47.537Z,1252
2018-01-31T14:05:47.526Z,1304
2018-01-31T14:06:47.581Z,1364
2018-01-31T14:08:02.507Z,1384
2018-01-31T14:08:47.853Z,1336
2018-01-31T14:09:47.901Z,1276
2018-01-31T14:10:47.635Z,1264
2018-01-31T14:12:47.676Z,1092
2018-01-31T14:13:47.958Z,1028
2018-01-31T14:14:47.967Z,1016
2018-01-31T14:15:48.001Z,1032
2018-01-31T14:16:47.995Z,1108
2018-01-31T14:18:17.376Z,1152
2018-01-31T14:18:48.072Z,1140
2018-01-31T14:19:48.046Z,1004
2018-01-31T14:21:02.764Z,968
2018-01-31T14:21:47.850Z,952
2018-01-31T14:22:48.109Z,948
2018-01-31T14:23:48.142Z,996
2018-01-31T14:24:47.906Z,1020
2018-01-31T14:25:47.898Z,956
2018-01-31T14:26:48.287Z,944
2018-01-31T14:27:47.448Z,896
2018-01-31T14:28:48.224Z,920
2018-01-31T14:29:48.017Z,892
2018-01-31T14:30:48.320Z,848
2018-01-31T14:31:48.122Z,820
2018-01-31T14:33:02.706Z,780
2018-01-31T14:33:48.325Z,824
2018-01-31T14:35:02.760Z,932
2018-01-31T14:36:48.383Z,940
2018-01-31T14:37:48.137Z,932
2018-01-31T14:38:48.158Z,940
2018-01-31T14:39:48.430Z,876
2018-01-31T14:41:03.121Z,804
2018-01-31T14:41:48.230Z,764
2018-01-31T14:42:48.472Z,708
2018-01-31T14:44:48.522Z,612
2018-01-31T14:45:48.041Z,544
2018-01-31T14:46:48.663Z,488
2018-01-31T14:47:48.302Z,496
2018-01-31T14:48:48.608Z,524
2018-01-31T14:50:03.034Z,492
2018-01-31T14:50:48.650Z,464
2018-01-31T14:51:48.659Z,424
2018-01-31T14:52:48.666Z,412
2018-01-31T14:53:48.418Z,436
2018-01-31T14:54:48.703Z,424
2018-01-31T14:55:48.737Z,404
2018-01-31T14:56:48.766Z,396
2018-01-31T14:57:48.483Z,396
2018-01-31T14:58:48.539Z,400
2018-01-31T14:59:48.533Z,396
2018-01-31T15:00:48.801Z,388
2018-01-31T15:01:48.835Z,376
2018-01-31T15:02:48.822Z,368
2018-01-31T15:03:48.872Z,368
2018-01-31T15:05:03.309Z,376
2018-01-31T15:05:48.901Z,360
2018-01-31T15:06:48.655Z,352
2018-01-31T15:07:48.961Z,344
2018-01-31T15:08:48.977Z,324
2018-01-31T15:09:48.969Z,292
2018-01-31T15:10:48.499Z,276
2018-01-31T15:12:03.426Z,272
2018-01-31T15:12:49.046Z,264
2018-01-31T15:13:49.069Z,256
2018-01-31T15:14:49.091Z,256
2018-01-31T15:15:49.194Z,248
2018-01-31T15:16:49.103Z,236
2018-01-31T15:17:48.862Z,228
2018-01-31T15:18:49.139Z,228
2018-01-31T15:19:48.917Z,220
2018-01-31T15:21:03.861Z,200
2018-01-31T15:21:48.939Z,192
2018-01-31T15:22:48.711Z,188
2018-01-31T15:24:03.406Z,160
2018-01-31T15:24:49.279Z,152
2018-01-31T15:25:48.766Z,148
2018-01-31T15:26:49.049Z,144
2018-01-31T15:27:49.064Z,144
2018-01-31T15:28:49.336Z,144
2018-01-31T15:29:48.853Z,144
2018-01-31T15:30:49.382Z,136
2018-01-31T15:31:49.130Z,132
2018-01-31T15:32:49.134Z,136
2018-01-31T15:33:49.168Z,136
2018-01-31T15:34:49.188Z,132
2018-01-31T15:35:49.456Z,124
2018-01-31T15:37:04.137Z,116
2018-01-31T15:38:49.517Z,104
2018-01-31T15:39:49.542Z,104
2018-01-31T15:41:04.239Z,92
2018-01-31T15:42:04.227Z,84
2018-01-31T15:42:49.619Z,80
2018-01-31T15:43:49.669Z,72
2018-01-31T15:44:49.610Z,68
2018-01-31T15:45:49.652Z,56
2018-01-31T15:46:49.405Z,52
2018-01-31T15:47:49.419Z,48
2018-01-31T15:48:49.699Z,44
2018-01-31T15:49:49.469Z,44
2018-01-31T15:51:49.489Z,40
2018-01-31T15:53:04.445Z,36
2018-01-31T15:53:49.802Z,28
2018-01-31T15:54:49.913Z,28
2018-01-31T15:55:49.896Z,24
2018-01-31T15:56:49.614Z,24
2018-01-31T15:57:49.869Z,20
2018-01-31T15:58:49.893Z,16
2018-01-31T15:59:49.887Z,12
2018-01-31T16:01:04.076Z,12
2018-01-31T16:02:04.373Z,8
2018-01-31T16:02:49.947Z,8
2018-01-31T16:03:49.717Z,8
2018-01-31T16:04:49.981Z,8
2018-01-31T16:05:50.010Z,8
2018-01-31T16:06:50.025Z,4
2018-01-31T16:08:50.076Z,4
2018-01-31T16:09:50.067Z,4
2018-01-31T16:10:50.101Z,0
2018-01-31T16:11:50.101Z,4
2018-01-31T16:12:50.311Z,4
2018-01-31T16:13:49.909Z,4
2018-01-31T16:14:50.160Z,0
2018-01-31T16:15:50.211Z,0
2018-01-31T16:17:04.889Z,0
2018-01-31T16:18:04.906Z,0
2018-01-31T16:19:04.923Z,0
2018-01-31T16:19:50.249Z,0
2018-01-31T16:20:50.058Z,0
2018-01-31T16:21:50.300Z,0
2018-01-31T16:22:50.329Z,0
2018-01-31T16:23:50.372Z,0
2018-01-31T16:24:50.368Z,0
2018-01-31T16:25:50.384Z,0
2018-01-31T16:26:50.392Z,0
2018-01-31T16:27:50.420Z,0
2018-01-31T16:28:49.921Z,0
2018-01-31T16:29:50.213Z,0
2018-01-31T16:31:05.158Z,0
2018-01-31T16:31:50.497Z,0
2018-01-31T16:32:50.256Z,0
2018-01-31T16:33:50.508Z,0
2018-01-31T16:34:50.567Z,0
2018-01-31T16:35:50.310Z,0
2018-01-31T16:37:04.995Z,0
2018-01-31T16:37:50.355Z,0
2018-01-31T16:39:05.026Z,0
2018-01-31T16:40:05.323Z,0
2018-01-31T16:40:50.398Z,0
2018-01-31T16:41:50.656Z,0
2018-01-31T16:42:50.702Z,0
2018-01-31T16:43:50.459Z,0
2018-01-31T16:44:50.730Z,0
2018-01-31T16:45:50.750Z,0
2018-01-31T16:47:05.455Z,0
2018-01-31T16:47:50.799Z,0
2018-01-31T16:48:50.837Z,0